createdAt,value
2019-04-03T00:01:35.887Z,36.93
2019-04-03T00:04:05.274Z,34.43
2019-04-03T00:06:35.385Z,38.28
2019-04-03T00:09:07.501Z,37.10
2019-04-03T00:14:07.656Z,37.98
2019-04-03T00:16:38.203Z,42.03
2019-04-03T00:19:07.580Z,39.78
2019-04-03T00:21:36.913Z,39.60
2019-04-03T00:24:06.413Z,40.75
2019-04-03T00:26:35.862Z,35.80
2019-04-03T00:29:05.374Z,38.55
2019-04-03T00:31:35.008Z,36.33
2019-04-03T00:34:04.397Z,34.33
2019-04-03T00:36:33.829Z,34.00
2019-04-03T00:39:04.922Z,32.58
2019-04-03T00:41:36.050Z,29.20
2019-04-03T00:44:05.516Z,31.10
2019-04-03T00:46:34.946Z,29.30
2019-04-03T00:49:04.325Z,32.73
2019-04-03T00:51:33.797Z,30.95
2019-04-03T00:54:03.224Z,30.25
2019-04-03T00:56:32.623Z,28.62
2019-04-03T00:59:02.105Z,29.65
2019-04-03T01:01:31.560Z,30.45
2019-04-03T01:04:00.915Z,30.05
2019-04-03T01:06:30.306Z,34.35
2019-04-03T01:09:00.082Z,33.50
2019-04-03T01:11:31.163Z,35.90
2019-04-03T01:14:01.597Z,31.20
2019-04-03T01:16:33.004Z,25.97
2019-04-03T01:19:05.389Z,30.32
2019-04-03T01:21:36.466Z,27.00
2019-04-03T01:24:07.688Z,32.78
2019-04-03T01:26:36.221Z,29.30
2019-04-03T01:29:05.640Z,26.17
2019-04-03T01:31:35.118Z,26.57
2019-04-03T01:34:04.470Z,30.23
2019-04-03T01:36:33.843Z,33.53
2019-04-03T01:39:03.199Z,31.10
2019-04-03T01:41:34.212Z,28.17
2019-04-03T01:44:03.708Z,25.43
2019-04-03T01:46:33.299Z,28.05
2019-04-03T01:49:02.787Z,28.43
2019-04-03T01:51:32.141Z,25.70
2019-04-03T01:54:02.912Z,26.97
2019-04-03T01:56:33.825Z,27.67
2019-04-03T01:59:06.098Z,25.30
2019-04-03T02:01:34.724Z,25.17
2019-04-03T02:06:33.862Z,24.98
2019-04-03T02:09:04.715Z,26.62
2019-04-03T02:11:34.617Z,25.50
2019-04-03T02:14:03.990Z,25.77
2019-04-03T02:16:33.351Z,27.37
2019-04-03T02:19:02.789Z,26.05
2019-04-03T02:21:32.280Z,25.60
2019-04-03T02:24:01.795Z,25.43
2019-04-03T02:26:32.531Z,27.35
2019-04-03T02:29:04.285Z,26.10
2019-04-03T02:31:33.326Z,26.60
2019-04-03T02:34:03.205Z,27.10
2019-04-03T02:36:32.761Z,27.15
2019-04-03T02:39:02.230Z,27.17
2019-04-03T02:44:02.918Z,30.05
2019-04-03T02:46:32.357Z,29.45
2019-04-03T02:49:01.784Z,29.80
2019-04-03T02:51:31.308Z,31.42
2019-04-03T02:54:02.292Z,32.33
2019-04-03T02:56:31.787Z,32.88
2019-04-03T02:59:01.153Z,33.25
2019-04-03T03:01:31.714Z,32.33
2019-04-03T03:04:02.269Z,32.40
2019-04-03T03:06:33.081Z,33.58
2019-04-03T03:09:02.823Z,34.05
2019-04-03T03:11:32.285Z,33.78
2019-04-03T03:14:01.750Z,32.28
2019-04-03T03:16:31.078Z,31.75
2019-04-03T03:19:01.690Z,32.00
2019-04-03T03:21:31.736Z,30.75
2019-04-03T03:24:01.394Z,32.13
2019-04-03T03:26:30.812Z,30.93
2019-04-03T03:29:15.332Z,31.07
2019-04-03T03:32:00.328Z,29.95
2019-04-03T03:34:05.265Z,30.80
2019-04-03T03:36:34.062Z,32.08
2019-04-03T03:39:05.646Z,30.57
2019-04-03T03:41:35.279Z,33.70
2019-04-03T03:44:05.186Z,31.07
2019-04-03T03:46:34.702Z,32.38
2019-04-03T03:49:04.162Z,31.35
2019-04-03T03:51:33.754Z,30.43
2019-04-03T03:54:04.356Z,33.13
2019-04-03T03:56:33.867Z,29.45
2019-04-03T03:59:03.295Z,33.98
2019-04-03T04:01:34.262Z,36.13
2019-04-03T04:04:03.767Z,33.90
2019-04-03T04:06:36.245Z,34.65
2019-04-03T04:09:24.537Z,36.53
2019-04-03T04:11:53.963Z,34.13
2019-04-03T04:14:23.640Z,33.95
2019-04-03T04:16:53.570Z,36.08
2019-04-03T04:19:23.529Z,34.27
2019-04-03T04:21:53.269Z,37.03
2019-04-03T04:24:23.785Z,36.85
2019-04-03T04:26:53.189Z,35.92
2019-04-03T04:29:23.462Z,34.20
2019-04-03T04:31:52.864Z,36.48
2019-04-03T04:34:22.294Z,36.75
2019-04-03T04:36:55.393Z,35.40
2019-04-03T04:39:24.505Z,35.30
2019-04-03T04:41:53.964Z,36.35
2019-04-03T04:46:53.141Z,34.48
2019-04-03T04:49:23.191Z,37.13
2019-04-03T04:51:52.687Z,35.10
2019-04-03T04:54:22.157Z,37.17
2019-04-03T04:56:51.780Z,44.05
2019-04-03T04:59:21.217Z,44.87
2019-04-03T05:01:50.670Z,46.48
2019-04-03T05:04:22.953Z,42.75
2019-04-03T05:06:52.422Z,42.55
2019-04-03T05:09:21.876Z,42.55
2019-04-03T05:11:51.345Z,49.65
2019-04-03T05:14:20.927Z,48.23
2019-04-03T05:16:50.405Z,42.47
2019-04-03T05:19:20.001Z,43.75
2019-04-03T05:21:50.802Z,40.03
2019-04-03T05:24:20.495Z,39.48
2019-04-03T05:26:49.844Z,37.53
2019-04-03T05:29:19.225Z,39.05
2019-04-03T05:32:09.935Z,35.80
2019-04-03T05:34:39.055Z,38.50
2019-04-03T05:37:11.359Z,38.67
2019-04-03T05:39:40.060Z,35.15
2019-04-03T05:42:09.513Z,42.50
2019-04-03T05:44:38.970Z,35.80
2019-04-03T05:47:08.594Z,37.15
2019-04-03T05:49:39.108Z,40.25
2019-04-03T05:52:08.656Z,38.63
2019-04-03T05:54:39.329Z,39.10
2019-04-03T05:57:09.159Z,37.40
2019-04-03T05:59:43.294Z,38.55
2019-04-03T06:02:15.755Z,38.38
2019-04-03T06:04:42.720Z,44.30
2019-04-03T06:07:12.357Z,34.95
2019-04-03T06:09:42.070Z,33.80
2019-04-03T06:12:14.155Z,39.98
2019-04-03T06:14:42.638Z,37.35
2019-04-03T06:17:12.236Z,34.03
2019-04-03T06:19:41.912Z,36.13
2019-04-03T06:22:11.540Z,33.18
2019-04-03T06:24:41.131Z,34.80
2019-04-03T06:27:10.725Z,34.05
2019-04-03T06:29:40.330Z,33.73
2019-04-03T06:32:09.896Z,37.75
2019-04-03T06:34:42.683Z,36.58
2019-04-03T06:37:10.495Z,33.70
2019-04-03T06:39:40.026Z,31.30
2019-04-03T06:42:09.481Z,31.12
2019-04-03T06:44:39.011Z,33.42
2019-04-03T06:47:08.551Z,35.78
2019-04-03T06:49:39.797Z,32.45
2019-04-03T06:52:09.064Z,33.80
2019-04-03T06:54:38.711Z,32.23
2019-04-03T06:57:08.908Z,34.57
2019-04-03T06:59:38.583Z,34.20
2019-04-03T07:02:08.172Z,32.33
2019-04-03T07:04:38.345Z,32.93
2019-04-03T07:09:37.269Z,33.70
2019-04-03T07:12:06.778Z,32.58
2019-04-03T07:14:36.531Z,32.05
2019-04-03T07:17:06.397Z,33.17
2019-04-03T07:19:36.060Z,30.82
2019-04-03T07:22:05.520Z,32.00
2019-04-03T07:24:35.052Z,30.17
2019-04-03T07:27:06.188Z,30.07
2019-04-03T07:29:36.725Z,31.62
2019-04-03T07:32:06.253Z,31.97
2019-04-03T07:34:35.783Z,31.12
2019-04-03T07:37:05.245Z,33.08
2019-04-03T07:39:34.920Z,41.85
2019-04-03T07:42:04.454Z,32.30
2019-04-03T07:44:33.985Z,30.20
2019-04-03T07:47:04.609Z,30.43
2019-04-03T07:49:34.205Z,27.50
2019-04-03T07:52:03.825Z,29.00
2019-04-03T07:54:33.525Z,28.27
2019-04-03T07:57:03.127Z,29.50
2019-04-03T08:02:03.742Z,30.23
2019-04-03T08:04:54.220Z,29.30
2019-04-03T08:07:23.652Z,27.82
2019-04-03T08:09:53.107Z,28.60
2019-04-03T08:12:22.561Z,25.75
2019-04-03T08:14:52.241Z,26.77
2019-04-03T08:17:21.779Z,26.87
2019-04-03T08:19:53.736Z,27.93
2019-04-03T08:22:23.546Z,25.48
2019-04-03T08:24:53.811Z,25.65
2019-04-03T08:27:24.368Z,25.43
2019-04-03T08:32:22.643Z,25.08
2019-04-03T08:34:52.117Z,23.80
2019-04-03T08:37:29.628Z,24.85
2019-04-03T08:39:53.267Z,20.70
2019-04-03T08:42:23.035Z,19.37
2019-04-03T08:44:52.478Z,18.65
2019-04-03T08:47:21.863Z,18.62
2019-04-03T08:49:51.315Z,18.25
2019-04-03T08:52:20.706Z,18.77
2019-04-03T08:54:50.334Z,18.12
2019-04-03T08:57:20.454Z,20.13
2019-04-03T09:02:18.920Z,18.48
2019-04-03T09:04:48.774Z,19.60
2019-04-03T09:07:18.304Z,18.85
2019-04-03T09:09:47.661Z,18.52
2019-04-03T09:12:17.124Z,18.85
2019-04-03T09:14:46.480Z,18.73
2019-04-03T09:17:15.869Z,18.48
2019-04-03T09:19:45.260Z,18.52
2019-04-03T09:22:14.629Z,19.82
2019-04-03T09:24:44.066Z,19.55
2019-04-03T09:27:13.482Z,17.60
2019-04-03T09:29:45.151Z,17.92
2019-04-03T09:32:13.969Z,17.85
2019-04-03T09:34:43.602Z,17.80
2019-04-03T09:37:13.103Z,19.10
2019-04-03T09:39:45.296Z,17.82
2019-04-03T09:42:14.534Z,18.77
2019-04-03T09:44:43.918Z,18.98
2019-04-03T09:47:13.277Z,19.42
2019-04-03T09:49:44.101Z,18.42
2019-04-03T09:52:13.954Z,17.32
2019-04-03T09:54:43.421Z,18.73
2019-04-03T09:57:12.810Z,17.60
2019-04-03T09:59:42.205Z,18.32
2019-04-03T10:02:11.591Z,18.25
2019-04-03T10:04:41.020Z,19.00
2019-04-03T10:07:10.522Z,18.65
2019-04-03T10:09:42.805Z,19.40
2019-04-03T10:12:11.322Z,19.95
2019-04-03T10:14:40.935Z,19.42
2019-04-03T10:17:10.511Z,18.32
2019-04-03T10:19:40.267Z,18.50
2019-04-03T10:22:10.767Z,19.05
2019-04-03T10:24:40.257Z,19.92
2019-04-03T10:27:11.200Z,19.67
2019-04-03T10:29:40.946Z,20.70
2019-04-03T10:32:11.366Z,22.90
2019-04-03T10:34:41.325Z,28.77
2019-04-03T10:37:13.814Z,21.90
2019-04-03T10:39:43.983Z,23.52
2019-04-03T10:42:12.821Z,21.17
2019-04-03T10:44:42.266Z,19.45
2019-04-03T10:47:11.676Z,19.92
2019-04-03T10:49:41.058Z,21.70
2019-04-03T10:54:41.725Z,23.57
2019-04-03T10:57:11.117Z,21.85
2019-04-03T10:59:40.483Z,20.10
2019-04-03T11:02:29.290Z,20.23
2019-04-03T11:05:00.201Z,19.20
2019-04-03T11:07:29.665Z,18.10
2019-04-03T11:09:59.059Z,18.92
2019-04-03T11:12:31.282Z,19.07
2019-04-03T11:14:59.518Z,22.48
2019-04-03T11:17:29.358Z,20.47
2019-04-03T11:19:59.116Z,18.92
2019-04-03T11:22:39.761Z,18.52
2019-04-03T11:24:59.741Z,21.07
2019-04-03T11:30:00.328Z,18.92
2019-04-03T11:30:54.795Z,21.40
2019-04-03T11:32:29.725Z,20.23
2019-04-03T11:34:59.112Z,20.80
2019-04-03T11:40:04.215Z,21.05
2019-04-03T11:42:31.117Z,20.50
2019-04-03T11:45:04.007Z,20.72
2019-04-03T11:47:31.666Z,21.10
2019-04-03T11:50:01.112Z,19.82
2019-04-03T11:52:30.900Z,20.20
2019-04-03T11:55:00.412Z,20.75
2019-04-03T11:57:29.869Z,19.70
2019-04-03T11:59:59.229Z,17.92
2019-04-03T12:02:28.632Z,18.60
2019-04-03T12:04:58.069Z,19.45
2019-04-03T12:07:27.463Z,20.00
2019-04-03T12:09:57.207Z,18.57
2019-04-03T12:12:26.715Z,20.20
2019-04-03T12:14:56.389Z,19.05
2019-04-03T12:17:29.137Z,18.80
2019-04-03T12:19:58.054Z,20.10
2019-04-03T12:22:27.425Z,19.85
2019-04-03T12:24:57.138Z,20.15
2019-04-03T12:27:26.926Z,20.23
2019-04-03T12:29:56.285Z,20.62
2019-04-03T12:32:36.381Z,19.52
2019-04-03T12:34:56.753Z,20.62
2019-04-03T12:37:26.152Z,20.50
2019-04-03T12:39:55.531Z,19.80
2019-04-03T12:42:44.499Z,19.62
2019-04-03T12:45:15.929Z,18.95
2019-04-03T12:47:45.307Z,21.23
2019-04-03T12:50:17.220Z,19.95
2019-04-03T12:52:46.684Z,20.20
2019-04-03T12:55:16.153Z,19.10
2019-04-03T12:57:45.542Z,20.30
2019-04-03T13:00:15.732Z,20.72
2019-04-03T13:02:45.784Z,21.45
2019-04-03T13:05:15.332Z,20.90
2019-04-03T13:07:46.842Z,19.90
2019-04-03T13:10:15.741Z,21.12
2019-04-03T13:12:45.131Z,19.42
2019-04-03T13:15:14.654Z,19.45
2019-04-03T13:17:44.802Z,20.80
2019-04-03T13:22:43.732Z,19.50
2019-04-03T13:25:13.317Z,19.73
2019-04-03T13:27:42.870Z,18.73
2019-04-03T13:30:13.930Z,18.65
2019-04-03T13:32:43.457Z,18.92
2019-04-03T13:35:15.111Z,18.20
2019-04-03T13:37:44.231Z,17.92
2019-04-03T13:40:13.718Z,17.67
2019-04-03T13:42:43.168Z,16.60
2019-04-03T13:45:12.559Z,16.35
2019-04-03T13:47:44.554Z,16.32
2019-04-03T13:50:13.044Z,16.23
2019-04-03T13:52:47.803Z,16.93
2019-04-03T13:55:13.479Z,16.90
2019-04-03T13:57:42.847Z,17.50
2019-04-03T14:00:20.579Z,16.93
2019-04-03T14:02:45.977Z,16.50
2019-04-03T14:05:14.502Z,16.40
2019-04-03T14:07:44.995Z,16.32
2019-04-03T14:10:14.341Z,16.90
2019-04-03T14:12:45.173Z,17.32
2019-04-03T14:15:14.731Z,16.05
2019-04-03T14:17:54.606Z,16.15
2019-04-03T14:20:15.407Z,16.17
2019-04-03T14:22:45.223Z,17.05
2019-04-03T14:25:20.619Z,18.00
2019-04-03T14:27:46.463Z,16.65
2019-04-03T14:30:15.918Z,16.77
2019-04-03T14:32:45.625Z,15.43
2019-04-03T14:35:43.706Z,16.62
2019-04-03T14:37:46.057Z,15.70
2019-04-03T14:40:15.617Z,16.10
2019-04-03T14:42:45.324Z,16.87
2019-04-03T14:45:15.297Z,16.17
2019-04-03T14:47:45.382Z,15.58
2019-04-03T14:50:14.885Z,16.45
2019-04-03T14:52:44.247Z,15.75
2019-04-03T14:55:20.806Z,15.80
2019-04-03T14:57:44.694Z,16.27
2019-04-03T15:00:26.016Z,15.40
2019-04-03T15:02:46.528Z,15.43
2019-04-03T15:05:19.719Z,15.55
2019-04-03T15:07:50.595Z,15.50
2019-04-03T15:10:20.767Z,15.43
2019-04-03T15:12:51.190Z,15.20
2019-04-03T15:15:20.584Z,16.05
2019-04-03T15:17:49.954Z,14.53
2019-04-03T15:20:19.880Z,15.55
2019-04-03T15:22:49.477Z,15.90
2019-04-03T15:25:20.737Z,15.28
2019-04-03T15:27:50.496Z,15.38
2019-04-03T15:30:20.590Z,15.30
2019-04-03T15:32:51.466Z,15.65
2019-04-03T15:35:21.205Z,15.93
2019-04-03T15:37:50.599Z,15.75
2019-04-03T15:40:19.969Z,15.70
2019-04-03T15:42:49.356Z,15.43
2019-04-03T15:45:19.040Z,15.70
2019-04-03T15:47:48.502Z,14.47
2019-04-03T15:50:17.887Z,15.10
2019-04-03T15:52:49.304Z,15.80
2019-04-03T15:55:18.632Z,15.00
2019-04-03T15:58:01.458Z,14.83
2019-04-03T16:00:33.870Z,15.30
2019-04-03T16:03:02.885Z,15.50
2019-04-03T16:05:35.645Z,14.43
2019-04-03T16:08:03.491Z,14.40
2019-04-03T16:10:32.925Z,14.30
2019-04-03T16:13:02.307Z,15.85
2019-04-03T16:15:31.963Z,16.05
2019-04-03T16:18:02.194Z,16.12
2019-04-03T16:20:32.162Z,14.70
2019-04-03T16:23:03.860Z,14.43
2019-04-03T16:25:33.015Z,14.40
2019-04-03T16:28:04.324Z,14.13
2019-04-03T16:30:34.327Z,15.18
2019-04-03T16:33:05.093Z,24.30
2019-04-03T16:35:35.927Z,14.85
2019-04-03T16:38:05.283Z,14.87
2019-04-03T16:40:39.759Z,16.82
2019-04-03T16:43:09.217Z,15.13
2019-04-03T16:45:39.245Z,14.40
2019-04-03T16:48:09.230Z,14.00
2019-04-03T16:50:38.632Z,15.30
2019-04-03T16:53:08.065Z,15.30
2019-04-03T16:55:37.491Z,15.23
2019-04-03T16:58:06.907Z,15.88
2019-04-03T17:03:07.707Z,15.35
2019-04-03T17:05:37.089Z,14.90
2019-04-03T17:08:06.540Z,15.53
2019-04-03T17:10:36.003Z,15.65
2019-04-03T17:13:05.361Z,14.58
2019-04-03T17:15:35.748Z,14.53
2019-04-03T17:20:33.808Z,15.43
2019-04-03T17:23:03.575Z,16.95
2019-04-03T17:25:44.528Z,16.17
2019-04-03T17:28:07.966Z,16.23
2019-04-03T17:30:35.286Z,17.32
2019-04-03T17:33:06.073Z,15.98
2019-04-03T17:35:35.827Z,16.27
2019-04-03T17:38:05.221Z,18.02
2019-04-03T17:40:36.384Z,17.98
2019-04-03T17:43:06.054Z,16.20
2019-04-03T17:45:35.553Z,16.35
2019-04-03T17:48:06.541Z,17.60
2019-04-03T17:50:35.986Z,18.23
2019-04-03T17:53:06.571Z,17.82
2019-04-03T17:55:36.593Z,18.52
2019-04-03T17:58:06.196Z,16.65
2019-04-03T18:00:35.747Z,17.20
2019-04-03T18:03:19.264Z,17.73
2019-04-03T18:09:32.741Z,16.05
2019-04-03T18:12:31.539Z,17.23
2019-04-03T18:15:00.988Z,17.07
2019-04-03T18:17:31.689Z,17.62
2019-04-03T18:20:21.164Z,19.05
2019-04-03T18:22:51.197Z,21.17
2019-04-03T18:25:26.855Z,18.17
2019-04-03T18:27:56.820Z,18.30
2019-04-03T18:30:26.376Z,18.65
2019-04-03T18:32:55.913Z,18.60
2019-04-03T18:35:26.129Z,17.87
2019-04-03T18:37:55.983Z,21.25
2019-04-03T18:40:25.650Z,20.35
2019-04-03T18:43:01.793Z,19.52
2019-04-03T18:45:31.629Z,19.60
2019-04-03T18:48:02.625Z,18.67
2019-04-03T18:50:34.845Z,19.02
2019-04-03T18:53:03.949Z,18.95
2019-04-03T18:55:34.764Z,19.25
2019-04-03T18:58:06.777Z,20.12
2019-04-03T19:00:36.338Z,19.52
2019-04-03T19:03:06.653Z,20.27
2019-04-03T19:08:12.841Z,18.85
2019-04-03T19:11:01.505Z,20.43
2019-04-03T19:16:51.496Z,21.62
2019-04-03T19:19:39.096Z,20.50
2019-04-03T19:22:08.791Z,20.65
2019-04-03T19:24:38.210Z,20.03
2019-04-03T19:27:07.674Z,21.07
2019-04-03T19:29:37.178Z,19.82
2019-04-03T19:32:06.614Z,19.23
2019-04-03T19:34:36.050Z,20.65
2019-04-03T19:37:05.425Z,20.55
2019-04-03T19:39:37.790Z,20.15
2019-04-03T19:42:08.924Z,21.40
2019-04-03T19:44:41.573Z,20.88
2019-04-03T19:47:10.744Z,20.60
2019-04-03T19:49:40.555Z,20.57
2019-04-03T19:52:11.279Z,20.90
2019-04-03T19:54:44.408Z,22.43
2019-04-03T19:57:14.582Z,22.15
2019-04-03T19:59:44.139Z,23.27
2019-04-03T20:02:13.621Z,23.27
2019-04-03T20:04:43.050Z,22.48
2019-04-03T20:07:12.647Z,19.82
2019-04-03T20:09:42.433Z,21.80
2019-04-03T20:12:12.126Z,19.98
2019-04-03T20:14:43.762Z,21.68
2019-04-03T20:17:14.844Z,21.17
2019-04-03T20:19:44.523Z,22.65
2019-04-03T20:22:14.680Z,22.00
2019-04-03T20:24:44.353Z,21.77
2019-04-03T20:27:14.888Z,22.60
2019-04-03T20:29:44.919Z,22.75
2019-04-03T20:32:14.279Z,21.70
2019-04-03T20:34:45.117Z,21.52
2019-04-03T20:37:14.819Z,22.45
2019-04-03T20:39:44.180Z,21.48
2019-04-03T20:42:13.573Z,21.42
2019-04-03T20:44:42.951Z,22.07
2019-04-03T20:47:12.467Z,22.67
2019-04-03T20:49:54.761Z,22.52
2019-04-03T20:52:24.277Z,21.97
2019-04-03T20:54:53.981Z,21.23
2019-04-03T20:57:23.543Z,21.87
2019-04-03T21:00:01.909Z,21.25
2019-04-03T21:02:24.024Z,21.27
2019-04-03T21:04:53.434Z,22.67
2019-04-03T21:07:24.475Z,21.50
2019-04-03T21:09:53.801Z,22.13
2019-04-03T21:12:23.181Z,22.85
2019-04-03T21:14:52.565Z,23.87
2019-04-03T21:17:23.979Z,23.73
2019-04-03T21:19:52.961Z,23.25
2019-04-03T21:22:22.358Z,22.87
2019-04-03T21:24:51.716Z,22.73
2019-04-03T21:27:21.116Z,22.27
2019-04-03T21:29:50.475Z,23.80
2019-04-03T21:32:19.862Z,22.87
2019-04-03T21:34:49.345Z,21.87
2019-04-03T21:37:18.734Z,22.00
2019-04-03T21:39:48.119Z,21.80
2019-04-03T21:42:17.482Z,22.77
2019-04-03T21:44:46.932Z,23.12
2019-04-03T21:47:16.367Z,23.10
2019-04-03T21:49:47.547Z,21.85
2019-04-03T21:52:16.782Z,23.57
2019-04-03T21:54:46.171Z,24.18
2019-04-03T21:57:15.558Z,23.55
2019-04-03T21:59:44.924Z,23.90
2019-04-03T22:02:16.238Z,23.12
2019-04-03T22:04:45.311Z,22.40
2019-04-03T22:07:14.698Z,23.60
2019-04-03T22:09:44.089Z,24.45
2019-04-03T22:12:13.593Z,22.70
2019-04-03T22:14:43.487Z,22.60
2019-04-03T22:17:13.222Z,23.18
2019-04-03T22:19:42.894Z,23.37
2019-04-03T22:22:12.566Z,24.03
2019-04-03T22:24:42.213Z,24.63
2019-04-03T22:27:12.137Z,24.23
2019-04-03T22:29:41.823Z,23.62
2019-04-03T22:32:11.486Z,24.37
2019-04-03T22:34:41.157Z,22.67
2019-04-03T22:37:10.804Z,22.20
2019-04-03T22:39:40.470Z,22.87
2019-04-03T22:42:10.130Z,25.20
2019-04-03T22:44:39.790Z,23.90
2019-04-03T22:47:09.470Z,23.90
2019-04-03T22:49:39.149Z,23.90
2019-04-03T22:52:09.360Z,22.33
2019-04-03T22:54:39.085Z,23.98
2019-04-03T22:57:08.755Z,24.07
2019-04-03T22:59:38.402Z,24.27
2019-04-03T23:02:09.068Z,24.67
2019-04-03T23:04:41.878Z,24.77
2019-04-03T23:07:10.037Z,25.02
2019-04-03T23:09:39.671Z,24.97
2019-04-03T23:12:09.691Z,24.70
2019-04-03T23:14:39.353Z,24.67
2019-04-03T23:17:09.001Z,23.77
2019-04-03T23:19:38.675Z,24.80
2019-04-03T23:22:09.334Z,24.00
2019-04-03T23:24:38.975Z,25.30
2019-04-03T23:27:08.637Z,24.93
2019-04-03T23:29:38.294Z,24.40
2019-04-03T23:32:08.967Z,24.72
2019-04-03T23:34:38.629Z,25.37
2019-04-03T23:37:08.271Z,25.57
2019-04-03T23:39:37.934Z,24.47
2019-04-03T23:42:07.577Z,25.07
2019-04-03T23:44:41.691Z,24.30
2019-04-03T23:47:09.698Z,24.47
2019-04-03T23:49:41.100Z,25.37
2019-04-03T23:52:10.621Z,24.50
2019-04-03T23:54:40.285Z,24.07
2019-04-03T23:57:10.286Z,26.33
2019-04-03T23:59:40.104Z,27.85
